createdAt,value
2018-09-04T00:50:58.547Z,17.95
2018-09-04T00:56:07.822Z,17.88
2018-09-04T02:33:13.568Z,17.33
2018-09-04T02:38:16.847Z,16.97
2018-09-04T02:43:20.193Z,16.98
2018-09-04T03:45:58.310Z,16.17
2018-09-04T03:51:01.651Z,16.36
2018-09-04T03:56:10.763Z,16.31
2018-09-04T04:35:46.395Z,15.95
2018-09-04T04:40:49.743Z,16.02
2018-09-04T04:45:59.631Z,16.23
2018-09-04T04:51:02.976Z,16.13
2018-09-04T04:56:18.341Z,16.11
2018-09-04T05:01:21.678Z,16.12
2018-09-04T05:06:28.165Z,16.04
2018-09-04T05:11:31.553Z,16.03
2018-09-04T05:16:49.875Z,16.03
2018-09-04T05:21:53.994Z,16.10
2018-09-04T05:26:57.337Z,16.09
2018-09-04T05:32:00.679Z,16.04
2018-09-04T05:37:04.010Z,15.91
2018-09-04T05:42:07.345Z,15.93
2018-09-04T05:47:10.674Z,15.90
2018-09-04T05:52:14.772Z,15.95
2018-09-04T05:57:18.111Z,15.87
2018-09-04T06:02:22.269Z,15.76
2018-09-04T06:07:25.575Z,15.94
2018-09-04T06:12:29.684Z,15.81
2018-09-04T06:17:33.023Z,15.84
2018-09-04T06:22:36.350Z,15.99
2018-09-04T06:27:39.691Z,15.84
2018-09-04T07:01:29.368Z,16.19
2018-09-04T07:06:32.711Z,16.11
2018-09-04T07:11:36.052Z,16.05
2018-09-04T08:02:41.696Z,16.15
2018-09-04T08:07:45.042Z,16.16
2018-09-04T08:12:49.142Z,16.37
2018-09-04T09:03:56.174Z,16.42
2018-09-04T09:08:59.519Z,16.47
2018-09-04T09:14:02.861Z,16.34
2018-09-04T10:05:07.819Z,16.27
2018-09-04T10:10:11.176Z,16.32
2018-09-04T11:01:10.247Z,16.64
2018-09-04T11:06:13.584Z,16.51
2018-09-04T11:11:16.921Z,16.63
2018-09-04T12:02:22.539Z,16.87
2018-09-04T12:07:25.903Z,17.11
2018-09-04T12:12:29.345Z,16.78
2018-09-04T13:03:34.813Z,17.34
2018-09-04T13:08:38.152Z,17.48
2018-09-04T13:13:41.488Z,17.94
2018-09-04T14:04:47.206Z,18.54
2018-09-04T14:09:50.541Z,19.23
2018-09-04T14:14:53.885Z,20.06
2018-09-04T14:48:43.282Z,22.50
2018-09-04T14:53:46.615Z,22.74
2018-09-04T14:58:50.713Z,23.40
2018-09-04T15:32:39.382Z,23.95
2018-09-04T15:37:42.725Z,23.86
2018-09-04T15:42:46.111Z,24.28
2018-09-04T15:47:49.404Z,25.09
2018-09-04T15:52:52.739Z,25.19
2018-09-04T15:57:56.062Z,25.56
2018-09-04T16:02:59.398Z,25.89
2018-09-04T16:08:02.747Z,25.94
2018-09-04T16:13:06.087Z,24.92
2018-09-04T16:18:09.416Z,24.84
2018-09-04T16:23:12.754Z,25.31
2018-09-04T16:28:16.100Z,25.50
2018-09-04T16:33:19.428Z,25.29
2018-09-04T16:38:22.762Z,25.03
2018-09-04T16:43:26.086Z,25.09
2018-09-04T16:48:29.433Z,24.89
2018-09-04T16:53:33.551Z,24.72
2018-09-04T16:58:37.649Z,24.80
2018-09-04T17:03:41.071Z,25.00
2018-09-04T17:08:45.477Z,24.96
2018-09-04T17:13:48.939Z,24.72
2018-09-04T17:18:52.293Z,24.05
2018-09-04T17:23:55.635Z,23.73
2018-09-04T17:28:58.962Z,23.15
2018-09-04T17:34:02.308Z,22.82
2018-09-04T17:39:06.418Z,22.54
2018-09-04T17:44:20.443Z,22.64
2018-09-04T17:49:23.857Z,22.58
2018-09-04T17:54:27.186Z,22.49
2018-09-04T17:59:30.531Z,22.33
2018-09-04T18:04:33.876Z,22.15
2018-09-04T18:09:37.215Z,22.00
2018-09-04T18:14:45.562Z,21.91
2018-09-04T18:19:48.926Z,21.80
2018-09-04T18:30:07.156Z,21.62
2018-09-04T18:35:14.544Z,21.61
2018-09-04T18:40:19.272Z,21.61
2018-09-04T18:45:54.664Z,21.62
2018-09-04T18:51:00.382Z,21.58
2018-09-04T18:56:09.456Z,21.52
2018-09-04T19:01:14.335Z,21.43
2018-09-04T19:06:20.814Z,21.37
2018-09-04T19:11:24.155Z,21.26
2018-09-04T19:16:27.497Z,21.16
2018-09-04T19:21:31.699Z,21.04
2018-09-04T19:26:46.049Z,20.95
2018-09-04T19:31:52.258Z,20.89
2018-09-04T19:41:58.420Z,20.73
2018-09-04T19:47:01.803Z,20.65
2018-09-04T19:52:05.909Z,20.50
2018-09-04T19:57:09.255Z,20.40
2018-09-04T20:02:12.627Z,20.30
2018-09-04T20:07:16.040Z,20.22
2018-09-04T20:12:19.359Z,20.11
2018-09-04T20:17:22.907Z,20.05
2018-09-04T20:22:26.322Z,20.01
2018-09-04T20:27:30.866Z,19.94
2018-09-04T20:32:34.263Z,19.91
2018-09-04T20:37:57.069Z,19.88
2018-09-04T20:43:02.898Z,19.78
2018-09-04T20:48:07.030Z,19.69
2018-09-04T20:53:10.375Z,19.60
2018-09-04T20:58:32.140Z,19.50
2018-09-04T21:03:53.294Z,19.38
2018-09-04T21:08:56.663Z,19.36
2018-09-04T21:14:00.803Z,19.32
2018-09-04T21:19:04.175Z,19.30
2018-09-04T21:24:07.654Z,19.13
2018-09-04T21:29:11.143Z,19.02
2018-09-04T21:34:15.270Z,18.81
2018-09-04T21:39:19.407Z,18.90
2018-09-04T21:44:41.076Z,18.85
2018-09-04T21:49:44.435Z,18.77
2018-09-04T21:54:47.816Z,18.75
2018-09-04T21:59:51.170Z,18.74
2018-09-04T22:04:55.319Z,18.78
2018-09-04T22:09:59.461Z,18.81
2018-09-04T22:15:02.969Z,18.81
2018-09-04T22:20:07.101Z,18.73
2018-09-04T22:25:11.246Z,18.71
2018-09-04T22:30:15.448Z,18.74
2018-09-04T22:35:19.192Z,18.76
2018-09-04T22:40:23.428Z,18.79
2018-09-04T22:45:27.008Z,18.81
2018-09-04T22:50:30.366Z,18.83
2018-09-04T22:55:39.871Z,18.84
2018-09-04T23:00:43.233Z,18.80
2018-09-04T23:05:47.359Z,18.73
2018-09-04T23:10:51.489Z,18.55
